Delta Poseidon — SVBF6 — position and weather

sailwx.info

Track history (hours):
 
Tides and Currents Weather Stations Pressure Air Temp Water Temp Dewpoint Dewpoint Depression Visibility Wind Speed Wind Dir Waves Ship Positions

Delta Poseidon

Last reported at 2014-Oct-29 10:07 UTC. Time now 2014-Nov-24 02:58 UTC.
Position N 35°58' W 005°37'.
Warning: this ship's position is 25 days out of date.

Length 274 m; draft 11.1 m.

Type: Tanker. MMSI: 241086000.

Date/timePositionNaut miles runAvg speedWind from/ knotsBaromVisibWave heightAir tempDewpointWater temp
2014-Oct-29 10:07N 35°58' W 005°37'610.6
2014-Oct-29 09:30N 35°60' W 005°29'7 7.0
2014-Oct-29 08:33N 36°04' W 005°23'6 4.5
2014-Oct-29 07:16N 36°10' W 005°25'0 0.1
2014-Oct-29 06:22N 36°10' W 005°25'0 0.0
2014-Oct-29 05:16N 36°10' W 005°25'0 0.0
2014-Oct-29 04:13N 36°10' W 005°25'0 0.0
2014-Oct-28 19:05N 36°10' W 005°25'1 1.1
2014-Oct-28 18:33N 36°09' W 005°24'10 9.8
2014-Oct-28 17:33N 35°60' W 005°21'6411.7
2014-Oct-28 12:04N 35°35' W 006°34'2212.9
2014-Oct-28 10:21N 35°20' W 006°54'1212.7
2014-Oct-28 09:26N 35°11' W 007°04'10413.2
2014-Oct-28 01:33N 33°58' W 008°33'1313.2
2014-Oct-28 00:34N 33°48' W 008°44'1313.1
2014-Oct-27 23:34N 33°39' W 008°55'1313.1
2014-Oct-27 22:33N 33°30' W 009°07'1313.1
2014-Oct-27 21:33N 33°21' W 009°18'1312.9
2014-Oct-27 20:33N 33°12' W 009°29'1312.8
2014-Oct-27 19:33N 33°03' W 009°40'1312.8
2014-Oct-27 18:33N 32°54' W 009°51'1313.2
2014-Oct-27 17:33N 32°44' W 010°02'1312.9
2014-Oct-27 16:33N 32°35' W 010°13'1313.0
2014-Oct-27 15:34N 32°26' W 010°23'2613.0
2014-Oct-27 13:32N 32°08' W 010°46'  
Track history (hours):
 
Tides and Currents Weather Stations Pressure Air Temp Water Temp Dewpoint Dewpoint Depression Visibility Wind Speed Wind Dir Waves Ship Positions

Delta Poseidon

Last reported at 2014-Oct-29 10:07 UTC. Time now 2014-Nov-24 02:58 UTC.
Position N 35°58' W 005°37'.
Warning: this ship's position is 25 days out of date.

Length 274 m; draft 11.1 m.

Type: Tanker. MMSI: 241086000.

Date/timePositionNaut miles runAvg speedWind from/ knotsBaromVisibWave heightAir tempDewpointWater temp
2014-Oct-29 10:07N 35°58' W 005°37'610.6
2014-Oct-29 09:30N 35°60' W 005°29'7 7.0
2014-Oct-29 08:33N 36°04' W 005°23'6 4.5
2014-Oct-29 07:16N 36°10' W 005°25'0 0.1
2014-Oct-29 06:22N 36°10' W 005°25'0 0.0
2014-Oct-29 05:16N 36°10' W 005°25'0 0.0
2014-Oct-29 04:13N 36°10' W 005°25'0 0.0
2014-Oct-28 19:05N 36°10' W 005°25'1 1.1
2014-Oct-28 18:33N 36°09' W 005°24'10 9.8
2014-Oct-28 17:33N 35°60' W 005°21'6411.7
2014-Oct-28 12:04N 35°35' W 006°34'2212.9
2014-Oct-28 10:21N 35°20' W 006°54'1212.7
2014-Oct-28 09:26N 35°11' W 007°04'10413.2
2014-Oct-28 01:33N 33°58' W 008°33'1313.2
2014-Oct-28 00:34N 33°48' W 008°44'1313.1
2014-Oct-27 23:34N 33°39' W 008°55'1313.1
2014-Oct-27 22:33N 33°30' W 009°07'1313.1
2014-Oct-27 21:33N 33°21' W 009°18'1312.9
2014-Oct-27 20:33N 33°12' W 009°29'1312.8
2014-Oct-27 19:33N 33°03' W 009°40'1312.8
2014-Oct-27 18:33N 32°54' W 009°51'1313.2
2014-Oct-27 17:33N 32°44' W 010°02'1312.9
2014-Oct-27 16:33N 32°35' W 010°13'1313.0
2014-Oct-27 15:34N 32°26' W 010°23'2613.0
2014-Oct-27 13:32N 32°08' W 010°46'  

Dump ship's entire track history